Montara, California
Current Conditions -  °F | °C
As of 7:35 PM on Friday 24 Oct 2014 (Local Time) from KHAF Reporting Station
Scattered Clouds Scattered Clouds  
Wind Chill: 63°   Ceiling: Unl
Heat Index: 63°   Visibility: 7mi
Dew Point: 57°   Wind: 12mph
Humidity: 82%   Direction: 170°S
Pressure: 29.91"   Gusts: NA
Location:  37.54°N, 122.52°W
Report Text: KHAF 250235Z AUTO 17010KT 7SM SCT019 17/14 A2991 RMK AO2
Loading
Personal Weather Stations






























Interactive Weather Map
Tropical Storm Tracking
New forecast layout! Learn more

10-Day Weather Forecast

Advertisements
Track Severe Weather on mobile